首页
METAR-TAF:

METAR-TAF

机场 :

柯克沃爾機場

柯克沃尔, 苏格兰

纬度: 58-57N, 经度: 002-54W, 海拔: 21米

当前天气观测

该预报发布于13分钟前的06:20 UTC
静风
温度 1°C
湿度 80%
气压 1013 hPa
能见度10公里或以上
少量云层高于1900英尺

METAR: EGPA 190620Z 00000KT 9999 FEW019 01/M02 Q1013

时间: 06:33 (06:33 UTC)

预报

该预报发布于1小时和36分钟前的04:57 UTC
预报有效从19日的 06点(UTC)到 19日的 15点(UTC)
风速3节,风向多变
能见度10公里或以上
少量云层高于3000英尺
成为
从 19日的 12点(UTC)到 19日的 15点(UTC)
风速10节,风向南转南东

TAF: EGPA 190457Z 1906/1915 VRB03KT 9999 FEW030 BECMG 1912/1915 15010KT

超过4000个机场的气象观测和天气预报(METAR&TAF报告)。

可查询的气象台以黄色和红色小点在地图上表示。

将鼠标移到小点上方,可查看气象台名称。

然后点击查看天气观测和预报。

如需切换地图:点击带黑十字的绿色按钮放大地图;点击带横线的绿色按钮缩小地图;或者点击绿色箭头查看邻近地区的地图。


METAR-TAF: